Time;durP1;ratioP1;P1;durP2;ratioP2;P2;SDS_P1;SDS_P2;PMS_P1;PMS_P2;Temp;Humidity;BMP_temperature;BMP_pressure;BME280_temperature;BME280_humidity;BME280_pressure;Samples;Min_cycle;Max_cycle;Signal;HPM_P1;HPM_P2
2023/05/28 00:02:25;;;;;;;12.32;3.72;;;;;;;19.20;39.61;101857.22;5021125;27;97439;-70
2023/05/28 00:04:51;;;;;;;12.60;4.78;;;;;;;19.16;39.75;101860.16;5015260;27;98289;-71
2023/05/28 00:07:21;;;;;;;10.77;4.32;;;;;;;19.09;39.74;101863.16;5027284;27;98952;-71
2023/05/28 00:09:48;;;;;;;15.48;4.53;;;;;;;19.10;39.98;101851.47;5025560;27;97529;-71
2023/05/28 00:12:16;;;;;;;16.63;4.60;;;;;;;19.28;39.46;101854.13;5023760;27;101342;-72
2023/05/28 00:14:43;;;;;;;16.40;4.88;;;;;;;19.22;39.58;101849.97;5027676;27;100097;-72
2023/05/28 00:17:10;;;;;;;14.40;4.43;;;;;;;19.03;40.46;101854.59;5026428;27;99673;-71
2023/05/28 00:19:36;;;;;;;9.55;4.15;;;;;;;19.18;40.35;101840.34;5019121;27;96900;-72
2023/05/28 00:22:03;;;;;;;11.43;4.60;;;;;;;19.15;40.51;101851.25;5025291;27;97571;-70
2023/05/28 00:24:29;;;;;;;12.25;4.85;;;;;;;18.94;41.26;101850.56;5024208;27;101673;-72
2023/05/28 00:26:55;;;;;;;11.55;4.78;;;;;;;19.07;40.81;101845.41;5020102;27;98807;-72
2023/05/28 00:29:24;;;;;;;13.52;5.38;;;;;;;19.16;40.68;101844.94;5020957;27;96962;-70
2023/05/28 00:31:51;;;;;;;11.00;4.60;;;;;;;19.11;40.91;101838.94;5016428;27;96982;-72
2023/05/28 00:34:17;;;;;;;15.52;4.88;;;;;;;19.09;40.64;101835.50;5024828;27;98762;-72
2023/05/28 00:36:43;;;;;;;13.20;5.10;;;;;;;19.00;40.84;101835.97;5020185;27;101256;-71
2023/05/28 00:39:10;;;;;;;11.98;3.85;;;;;;;18.88;41.08;101836.63;5026207;27;96828;-70
2023/05/28 00:41:38;;;;;;;10.68;4.32;;;;;;;18.84;40.83;101835.09;5019795;27;97241;-71
2023/05/28 00:44:05;;;;;;;11.95;5.07;;;;;;;18.71;41.46;101833.00;5020408;27;99150;-71
2023/05/28 00:46:33;;;;;;;14.13;5.07;;;;;;;18.83;41.17;101834.22;5025171;27;99080;-70
2023/05/28 00:49:00;;;;;;;12.98;4.78;;;;;;;18.71;41.94;101834.81;5020931;27;98359;-71
2023/05/28 00:51:26;;;;;;;13.80;4.40;;;;;;;18.84;42.22;101837.75;5019283;27;96931;-71
2023/05/28 00:53:53;;;;;;;15.20;5.20;;;;;;;18.78;42.48;101833.56;5024488;27;98961;-72
2023/05/28 00:56:22;;;;;;;13.52;4.53;;;;;;;18.84;42.08;101827.03;5022427;27;98953;-70
2023/05/28 00:58:50;;;;;;;10.68;4.35;;;;;;;18.83;42.03;101834.22;5019252;27;96706;-71
2023/05/28 01:01:17;;;;;;;16.38;5.13;;;;;;;18.61;42.18;101828.22;5013616;27;96761;-71
2023/05/28 01:03:46;;;;;;;12.35;5.18;;;;;;;18.79;41.51;101831.75;5028117;27;101451;-71
2023/05/28 01:06:14;;;;;;;12.10;4.55;;;;;;;18.81;41.21;101822.72;5022848;27;98995;-70
2023/05/28 01:08:42;;;;;;;12.02;4.70;;;;;;;18.74;41.21;101828.47;5023694;27;97882;-70
2023/05/28 01:11:13;;;;;;;10.70;4.65;;;;;;;18.50;42.82;101818.06;5022066;27;97609;-70
2023/05/28 01:13:40;;;;;;;13.00;4.82;;;;;;;18.46;43.17;101820.94;5024540;27;98956;-71
2023/05/28 01:16:07;;;;;;;14.90;4.40;;;;;;;18.42;43.79;101819.38;5022665;27;98868;-71
2023/05/28 01:18:34;;;;;;;14.98;4.85;;;;;;;18.22;44.28;101818.59;5021547;27;98254;-71
2023/05/28 01:21:03;;;;;;;12.35;4.70;;;;;;;18.26;44.10;101813.94;5018164;27;97197;-71
2023/05/28 01:23:30;;;;;;;18.25;4.68;;;;;;;18.34;44.26;101819.78;5023703;27;99475;-71
2023/05/28 01:25:59;;;;;;;9.90;4.20;;;;;;;18.23;44.59;101812.31;5017728;27;98845;-71
2023/05/28 01:28:26;;;;;;;14.38;5.30;;;;;;;18.22;44.53;101817.72;5021781;27;97253;-70
2023/05/28 01:30:53;;;;;;;9.98;4.72;;;;;;;18.15;44.54;101824.31;5021895;27;96932;-72
2023/05/28 01:33:22;;;;;;;10.50;4.78;;;;;;;18.18;44.52;101826.84;5022310;27;99066;-71
2023/05/28 01:35:50;;;;;;;9.43;4.22;;;;;;;18.07;44.73;101832.72;5021395;27;98863;-71
2023/05/28 01:38:18;;;;;;;15.68;4.75;;;;;;;17.88;44.87;101827.41;5019160;27;97724;-70
2023/05/28 01:40:46;;;;;;;14.07;5.15;;;;;;;17.88;44.75;101821.19;5019381;27;96856;-71
2023/05/28 01:43:14;;;;;;;12.02;4.80;;;;;;;18.01;44.27;101824.13;5020224;27;99038;-70
2023/05/28 01:45:41;;;;;;;11.60;4.78;;;;;;;18.10;44.04;101821.88;5022348;27;99225;-71
2023/05/28 01:48:08;;;;;;;11.85;4.78;;;;;;;18.11;43.76;101820.94;5019455;27;96724;-71
2023/05/28 01:50:35;;;;;;;9.43;4.68;;;;;;;18.22;43.61;101815.91;5018520;27;97064;-70
2023/05/28 01:53:01;;;;;;;9.63;4.80;;;;;;;18.09;44.02;101811.25;5016527;27;98921;-71
2023/05/28 01:55:28;;;;;;;15.93;4.85;;;;;;;18.19;43.66;101820.53;5021623;27;98815;-71
2023/05/28 01:57:55;;;;;;;18.30;5.03;;;;;;;18.28;43.26;101817.41;5016890;27;96783;-72
2023/05/28 02:00:23;;;;;;;9.73;4.88;;;;;;;18.28;43.01;101814.75;5022944;27;98614;-71
2023/05/28 02:02:49;;;;;;;16.38;4.80;;;;;;;18.12;43.20;101816.44;5023510;27;99205;-70
2023/05/28 02:05:16;;;;;;;11.82;4.57;;;;;;;18.15;43.21;101811.81;5024827;27;98919;-70
2023/05/28 02:07:43;;;;;;;9.38;4.45;;;;;;;18.09;43.85;101809.44;5020003;27;97023;-71
2023/05/28 02:10:10;;;;;;;19.83;5.22;;;;;;;18.00;44.31;101809.91;5023162;27;97327;-71
2023/05/28 02:12:36;;;;;;;9.93;4.57;;;;;;;17.90;44.62;101814.84;5017247;27;101237;-72
2023/05/28 02:15:03;;;;;;;14.35;5.78;;;;;;;17.87;45.09;101804.28;5017759;27;98699;-71
2023/05/28 02:17:30;;;;;;;15.80;4.65;;;;;;;18.15;44.58;101802.94;5018661;27;96906;-71
2023/05/28 02:19:57;;;;;;;16.00;4.40;;;;;;;17.90;45.13;101798.81;5025005;27;97034;-71
2023/05/28 02:22:23;;;;;;;12.20;4.72;;;;;;;18.06;44.75;101811.41;5021474;27;98947;-71
2023/05/28 02:24:50;;;;;;;14.05;4.55;;;;;;;18.00;45.22;101806.34;5026375;27;99400;-71
2023/05/28 02:27:16;;;;;;;12.93;5.03;;;;;;;17.81;45.74;101801.91;5023002;27;98097;-70
2023/05/28 02:29:43;;;;;;;15.15;4.53;;;;;;;17.83;45.70;101801.84;5020788;27;101134;-71
2023/05/28 02:32:09;;;;;;;10.55;4.85;;;;;;;17.67;46.32;101799.03;5022165;27;99222;-72
2023/05/28 02:34:38;;;;;;;12.90;4.78;;;;;;;17.60;46.47;101804.72;5019564;27;98830;-70
2023/05/28 02:37:05;;;;;;;7.70;4.28;;;;;;;17.48;46.67;101804.38;5020681;27;96740;-71
2023/05/28 02:39:31;;;;;;;10.68;4.55;;;;;;;17.55;46.53;101802.28;5025809;27;96970;-70
2023/05/28 02:41:58;;;;;;;11.52;5.05;;;;;;;17.63;46.49;101805.50;5024974;27;101237;-70
2023/05/28 02:44:24;;;;;;;11.07;5.03;;;;;;;17.61;46.52;101804.69;5020534;27;98974;-72
2023/05/28 02:46:51;;;;;;;13.93;4.88;;;;;;;17.74;46.02;101805.81;5022045;27;96917;-71
2023/05/28 02:49:17;;;;;;;10.30;5.38;;;;;;;17.45;46.96;101801.00;5022089;27;97682;-70
2023/05/28 02:51:45;;;;;;;14.55;5.05;;;;;;;17.68;46.47;101807.94;5022244;27;97526;-70
2023/05/28 02:54:11;;;;;;;12.00;5.43;;;;;;;17.77;46.20;101810.19;5023740;27;99151;-70
2023/05/28 02:56:38;;;;;;;12.57;5.20;;;;;;;17.58;46.19;101804.81;5030640;27;97358;-71
2023/05/28 02:59:04;;;;;;;10.48;5.00;;;;;;;17.48;46.68;101806.19;5028220;27;97022;-70
2023/05/28 03:01:31;;;;;;;11.57;5.07;;;;;;;17.48;47.03;101808.84;5023382;27;99231;-71
2023/05/28 03:03:57;;;;;;;13.52;4.80;;;;;;;17.33;47.52;101813.09;5019564;27;98854;-71
2023/05/28 03:06:24;;;;;;;14.75;4.93;;;;;;;17.50;47.11;101813.19;5027053;27;98587;-71
2023/05/28 03:08:52;;;;;;;14.38;5.10;;;;;;;17.35;47.73;101813.03;5022400;27;96917;-70
2023/05/28 03:11:18;;;;;;;12.05;5.13;;;;;;;17.18;47.99;101807.63;5023575;27;99408;-72
2023/05/28 03:13:45;;;;;;;12.50;4.43;;;;;;;17.01;48.23;101806.56;5023599;27;98791;-70
2023/05/28 03:16:11;;;;;;;9.38;4.40;;;;;;;17.03;48.38;101804.72;5028636;27;97346;-71
2023/05/28 03:18:38;;;;;;;13.73;5.00;;;;;;;17.14;48.28;101807.75;5021363;27;98676;-71
2023/05/28 03:21:05;;;;;;;11.38;4.65;;;;;;;17.29;47.67;101806.19;5020584;27;99052;-70
2023/05/28 03:23:31;;;;;;;13.20;4.72;;;;;;;17.24;47.81;101804.66;5020136;27;97752;-70
2023/05/28 03:25:59;;;;;;;15.68;5.00;;;;;;;17.29;47.67;101800.84;5023408;27;97005;-70
2023/05/28 03:28:25;;;;;;;13.95;4.93;;;;;;;17.34;47.52;101809.50;5022872;27;97056;-71
2023/05/28 03:30:52;;;;;;;11.93;4.40;;;;;;;17.22;48.26;101801.19;5028003;27;100575;-71
2023/05/28 03:33:18;;;;;;;13.98;5.18;;;;;;;17.32;48.28;101806.06;5023425;27;99078;-70
2023/05/28 03:35:45;;;;;;;10.85;4.75;;;;;;;17.31;48.68;101803.44;5015201;27;98563;-71
2023/05/28 03:38:11;;;;;;;10.43;4.80;;;;;;;17.41;48.16;101796.72;5020646;27;97308;-71
2023/05/28 03:40:37;;;;;;;15.07;5.25;;;;;;;17.30;48.55;101799.91;5025269;27;99178;-72
2023/05/28 03:43:06;;;;;;;12.57;4.72;;;;;;;17.49;48.02;101799.91;5018144;27;97790;-70
2023/05/28 03:45:32;;;;;;;11.30;5.03;;;;;;;17.38;47.96;101803.09;5026382;27;96793;-69
2023/05/28 03:47:58;;;;;;;11.18;4.63;;;;;;;17.42;48.13;101795.78;5023427;27;97325;-71
2023/05/28 03:50:25;;;;;;;9.70;4.72;;;;;;;17.44;48.18;101796.59;5024104;27;99787;-71
2023/05/28 03:52:51;;;;;;;13.18;5.07;;;;;;;17.43;48.24;101800.19;5018374;27;98767;-70
2023/05/28 03:55:18;;;;;;;13.48;4.80;;;;;;;17.31;48.73;101807.00;5023661;27;96868;-70
2023/05/28 03:57:44;;;;;;;9.43;4.22;;;;;;;17.45;48.76;101793.84;5020000;27;96834;-70
2023/05/28 04:00:14;;;;;;;11.35;4.82;;;;;;;17.52;48.74;101800.59;5027855;27;98873;-71
2023/05/28 04:02:41;;;;;;;16.38;4.80;;;;;;;17.51;48.66;101800.69;5025252;27;98986;-76
2023/05/28 04:05:09;;;;;;;11.35;4.88;;;;;;;17.53;48.86;101797.00;5028339;27;98404;-78
2023/05/28 04:07:35;;;;;;;10.15;4.40;;;;;;;17.59;49.17;101797.66;5021444;27;96840;-77
2023/05/28 04:10:02;;;;;;;10.18;4.68;;;;;;;17.68;49.02;101795.44;5025268;27;99700;-76
2023/05/28 04:12:28;;;;;;;11.20;4.63;;;;;;;17.91;48.32;101803.22;5023350;27;98632;-76
2023/05/28 04:14:55;;;;;;;10.73;4.57;;;;;;;17.92;48.16;101796.91;5023872;27;97063;-76
2023/05/28 04:17:23;;;;;;;13.95;4.25;;;;;;;17.75;48.17;101809.38;5024907;27;97327;-75
2023/05/28 04:19:51;;;;;;;9.15;4.95;;;;;;;17.95;48.20;101806.59;5027716;27;97761;-76
2023/05/28 04:22:17;;;;;;;10.65;4.97;;;;;;;18.18;47.63;101806.28;5014842;27;99215;-76
2023/05/28 04:24:43;;;;;;;11.18;4.50;;;;;;;18.19;47.45;101799.13;5024188;27;96823;-76
2023/05/28 04:27:10;;;;;;;15.25;4.85;;;;;;;18.52;46.30;101800.09;5027679;27;96885;-75
2023/05/28 04:29:36;;;;;;;9.85;4.55;;;;;;;18.46;46.67;101799.53;5016203;27;98982;-76
2023/05/28 04:32:04;;;;;;;13.25;4.50;;;;;;;18.64;46.47;101802.16;5025512;27;99468;-75
2023/05/28 04:34:32;;;;;;;8.63;4.57;;;;;;;18.66;46.97;101804.75;5021614;27;97537;-74
2023/05/28 04:36:59;;;;;;;10.23;4.15;;;;;;;18.82;46.46;101795.00;5022425;27;96830;-76
2023/05/28 04:39:26;;;;;;;11.13;5.03;;;;;;;18.89;46.30;101806.25;5019803;27;99301;-75
2023/05/28 04:41:53;;;;;;;8.40;4.45;;;;;;;18.75;45.71;101808.78;5025944;27;99297;-75
2023/05/28 04:44:19;;;;;;;10.52;4.85;;;;;;;18.90;44.93;101806.16;5018300;27;96874;-75
2023/05/28 04:46:46;;;;;;;10.77;4.90;;;;;;;19.12;44.78;101803.16;5023908;27;96960;-75
2023/05/28 04:49:13;;;;;;;14.32;4.85;;;;;;;19.26;43.80;101800.59;5026451;27;99273;-76
2023/05/28 04:51:41;;;;;;;11.68;4.70;;;;;;;19.46;43.60;101811.13;5025905;27;100918;-78
2023/05/28 04:54:07;;;;;;;10.27;4.50;;;;;;;19.56;43.14;101800.72;5030935;27;96889;-77
2023/05/28 04:56:33;;;;;;;11.60;4.65;;;;;;;19.56;42.43;101797.22;5017059;27;97756;-77
2023/05/28 04:59:00;;;;;;;13.50;5.18;;;;;;;20.03;41.23;101795.34;5026234;27;99329;-77
2023/05/28 05:01:27;;;;;;;10.68;4.45;;;;;;;20.12;40.22;101802.00;5020249;27;100468;-76
2023/05/28 05:03:53;;;;;;;11.88;4.63;;;;;;;20.54;38.93;101802.16;5019234;28;96866;-76
2023/05/28 05:06:20;;;;;;;13.38;4.88;;;;;;;20.98;38.57;101804.81;5024434;27;97307;-77
2023/05/28 05:08:48;;;;;;;12.82;4.55;;;;;;;21.36;37.47;101809.59;5022648;27;98419;-77
2023/05/28 05:11:14;;;;;;;12.23;4.40;;;;;;;22.41;35.69;101800.81;5028622;27;98781;-77
2023/05/28 05:13:40;;;;;;;11.43;4.70;;;;;;;22.46;34.56;101804.06;5017296;27;97226;-77
2023/05/28 05:16:07;;;;;;;13.50;4.97;;;;;;;23.18;33.25;101805.28;5022339;27;98968;-77
2023/05/28 05:18:33;;;;;;;8.07;4.15;;;;;;;24.20;31.71;101792.38;5019916;27;98903;-78
2023/05/28 05:21:00;;;;;;;7.55;4.13;;;;;;;23.98;31.05;101795.81;5022686;27;97750;-76
2023/05/28 05:23:26;;;;;;;11.32;4.45;;;;;;;23.78;30.78;101791.91;5017449;27;97685;-76
2023/05/28 05:25:54;;;;;;;13.00;4.28;;;;;;;23.42;31.43;101795.44;5025653;27;96896;-77
2023/05/28 05:28:20;;;;;;;10.15;4.57;;;;;;;22.73;32.86;101797.75;5025522;27;99269;-77
2023/05/28 05:30:47;;;;;;;10.35;4.72;;;;;;;22.49;32.93;101795.78;5023073;27;99348;-77
2023/05/28 05:33:13;;;;;;;9.45;3.88;;;;;;;22.30;33.01;101798.00;5017060;27;100928;-77
2023/05/28 05:35:40;;;;;;;8.02;4.40;;;;;;;22.34;32.74;101790.56;5015177;27;98513;-77
2023/05/28 05:38:07;;;;;;;9.95;4.00;;;;;;;22.56;32.68;101793.53;5023093;27;97815;-76
2023/05/28 05:40:33;;;;;;;12.13;4.22;;;;;;;21.95;32.76;101796.78;5021483;27;98457;-76
2023/05/28 05:43:01;;;;;;;14.15;4.28;;;;;;;22.22;32.25;101795.84;5023166;27;96747;-77
2023/05/28 05:45:27;;;;;;;10.32;3.88;;;;;;;21.99;32.50;101796.50;5015099;27;97222;-77
2023/05/28 05:47:53;;;;;;;9.45;4.45;;;;;;;22.09;31.89;101796.75;5020473;27;98913;-78
2023/05/28 05:50:20;;;;;;;11.45;4.28;;;;;;;22.37;31.59;101802.03;5022507;27;99655;-76
2023/05/28 05:52:46;;;;;;;9.55;3.90;;;;;;;22.41;31.63;101798.13;5019975;27;97428;-77
2023/05/28 05:55:13;;;;;;;11.18;4.88;;;;;;;22.51;31.34;101796.53;5030357;27;97200;-76
2023/05/28 05:57:41;;;;;;;12.45;4.10;;;;;;;22.09;31.77;101788.69;5021270;27;98910;-76
2023/05/28 06:00:10;;;;;;;9.07;4.07;;;;;;;22.37;31.49;101791.25;5023055;27;97748;-78
2023/05/28 06:02:38;;;;;;;14.15;3.63;;;;;;;22.46;31.28;101797.81;5022688;27;96914;-77
2023/05/28 06:05:06;;;;;;;8.02;3.70;;;;;;;22.66;31.07;101800.84;5021504;27;96806;-72
2023/05/28 06:07:32;;;;;;;12.10;4.03;;;;;;;22.84;30.37;101796.03;5023050;27;98272;-72
2023/05/28 06:09:58;;;;;;;9.15;4.05;;;;;;;22.96;29.78;101803.28;5022590;27;100843;-72
2023/05/28 06:12:25;;;;;;;8.20;3.78;;;;;;;22.97;30.07;101790.66;5022570;27;97634;-72
2023/05/28 06:14:52;;;;;;;7.38;3.47;;;;;;;22.77;29.75;101804.69;5024739;27;98537;-72
2023/05/28 06:17:20;;;;;;;10.27;3.78;;;;;;;23.21;29.38;101807.78;5017146;27;97888;-72
2023/05/28 06:19:48;;;;;;;9.60;3.70;;;;;;;23.17;29.74;101805.44;5022266;27;99104;-71
2023/05/28 06:22:15;;;;;;;12.43;3.72;;;;;;;23.34;29.27;101791.59;5019765;27;97872;-72
2023/05/28 06:24:41;;;;;;;10.05;3.25;;;;;;;23.53;28.14;101786.59;5026032;27;99010;-73
2023/05/28 06:27:08;;;;;;;8.45;2.85;;;;;;;23.28;27.18;101789.34;5021720;27;99070;-72
2023/05/28 06:29:34;;;;;;;6.93;3.03;;;;;;;23.54;27.28;101787.47;5015311;27;98793;-72
2023/05/28 06:32:00;;;;;;;5.97;3.33;;;;;;;23.53;27.35;101785.72;5011853;27;97824;-72
2023/05/28 06:34:29;;;;;;;6.78;3.22;;;;;;;23.50;26.99;101791.38;5016852;27;99122;-73
2023/05/28 06:36:56;;;;;;;9.27;3.47;;;;;;;23.64;27.33;101789.34;5017992;27;101403;-73
2023/05/28 06:39:23;;;;;;;5.15;3.33;;;;;;;24.13;26.83;101791.09;5010015;27;98902;-72
2023/05/28 06:41:49;;;;;;;5.10;3.35;;;;;;;24.14;26.00;101784.72;5016085;27;96892;-71
2023/05/28 06:44:16;;;;;;;6.68;3.25;;;;;;;24.65;25.99;101787.97;5023977;27;96990;-72
2023/05/28 06:46:42;;;;;;;6.90;3.47;;;;;;;24.67;25.58;101788.72;5013441;27;99604;-71
2023/05/28 06:49:08;;;;;;;8.20;3.30;;;;;;;24.87;25.20;101788.00;5009258;27;99228;-70
2023/05/28 06:51:36;;;;;;;9.93;3.65;;;;;;;25.40;24.05;101791.00;5016701;27;97689;-70
2023/05/28 06:54:03;;;;;;;6.68;3.50;;;;;;;25.80;23.90;101791.28;5010902;27;98174;-71
2023/05/28 06:56:30;;;;;;;9.30;3.20;;;;;;;25.12;24.63;101791.50;5013789;27;99052;-71
2023/05/28 06:58:56;;;;;;;9.85;3.10;;;;;;;25.79;23.47;101793.16;5008435;27;101859;-71
2023/05/28 07:01:23;;;;;;;12.40;2.78;;;;;;;25.89;22.59;101786.97;5013052;27;96871;-71
2023/05/28 07:03:49;;;;;;;5.40;3.00;;;;;;;26.01;22.86;101791.34;5001344;27;98079;-71
2023/05/28 07:06:15;;;;;;;7.68;2.78;;;;;;;25.97;22.59;101795.31;5002357;27;99283;-71
2023/05/28 07:08:44;;;;;;;7.80;2.53;;;;;;;25.91;21.97;101788.56;5001932;27;99925;-71
2023/05/28 07:11:10;;;;;;;7.13;2.70;;;;;;;25.90;22.32;101788.69;5005031;27;97354;-71
2023/05/28 07:13:37;;;;;;;8.60;2.83;;;;;;;26.15;22.23;101789.19;5002942;27;98748;-71
2023/05/28 07:16:04;;;;;;;6.25;3.20;;;;;;;26.25;21.98;101783.06;5023316;27;100467;-72
2023/05/28 07:18:31;;;;;;;5.68;2.85;;;;;;;26.24;21.89;101782.19;5021103;27;99037;-72
2023/05/28 07:20:57;;;;;;;5.35;2.35;;;;;;;26.38;21.56;101779.16;5027945;27;97640;-72
2023/05/28 07:23:23;;;;;;;8.55;2.75;;;;;;;26.22;21.68;101778.69;5023044;27;97156;-72
2023/05/28 07:25:51;;;;;;;9.02;3.05;;;;;;;26.11;21.71;101784.19;5023811;27;99424;-72
2023/05/28 07:28:18;;;;;;;8.02;2.42;;;;;;;25.87;21.50;101789.78;5017626;27;99587;-72
2023/05/28 07:30:44;;;;;;;5.70;2.22;;;;;;;26.01;21.30;101786.78;5026078;27;98825;-71
2023/05/28 07:33:10;;;;;;;7.65;2.28;;;;;;;25.70;21.72;101783.09;5025720;27;97549;-71
2023/05/28 07:35:37;;;;;;;4.75;2.20;;;;;;;25.74;21.47;101787.25;5013252;27;98967;-70
2023/05/28 07:38:03;;;;;;;8.13;2.33;;;;;;;26.14;21.31;101782.06;5022864;27;98808;-72
2023/05/28 07:40:30;;;;;;;5.05;2.13;;;;;;;26.27;21.01;101790.03;5022924;27;96905;-73
2023/05/28 07:42:57;;;;;;;5.43;2.25;;;;;;;25.99;21.21;101796.88;5021394;27;98469;-72
2023/05/28 07:45:24;;;;;;;8.50;2.40;;;;;;;26.16;21.17;101790.06;5017757;27;99486;-72
2023/05/28 07:47:50;;;;;;;4.65;2.42;;;;;;;26.17;21.07;101789.94;5018801;27;98828;-72
2023/05/28 07:50:18;;;;;;;6.78;1.95;;;;;;;25.93;21.47;101794.69;5024714;27;96656;-74
2023/05/28 07:52:45;;;;;;;8.35;2.30;;;;;;;26.27;20.74;101786.47;5023368;27;98905;-72
2023/05/28 07:55:12;;;;;;;5.38;2.15;;;;;;;26.26;20.48;101782.91;5022449;27;99001;-73
2023/05/28 07:57:38;;;;;;;7.03;2.53;;;;;;;26.37;20.52;101782.84;5021557;27;99155;-73
2023/05/28 08:00:15;;;;;;;4.22;2.13;;;;;;;26.20;20.83;101776.13;5023682;27;97111;-77
2023/05/28 08:02:42;;;;;;;5.28;1.90;;;;;;;25.63;21.11;101771.03;5033400;27;97252;-78
2023/05/28 08:05:08;;;;;;;5.93;1.90;;;;;;;25.93;21.07;101773.03;5025650;27;98444;-77
2023/05/28 08:07:35;;;;;;;7.65;2.00;;;;;;;26.55;20.39;101775.84;5030644;27;98652;-77
2023/05/28 08:10:01;;;;;;;6.28;2.15;;;;;;;26.28;20.05;101772.78;5033814;27;96695;-77
2023/05/28 08:12:28;;;;;;;4.30;1.88;;;;;;;26.64;20.15;101767.91;5032725;27;97230;-73
2023/05/28 08:14:54;;;;;;;8.48;2.10;;;;;;;26.53;20.26;101769.69;5030889;27;99029;-73
2023/05/28 08:17:23;;;;;;;10.00;2.00;;;;;;;26.54;20.07;101759.72;5030842;27;101619;-73
2023/05/28 08:19:50;;;;;;;4.07;1.98;;;;;;;26.74;20.53;101758.84;5033678;27;96824;-73
2023/05/28 08:22:17;;;;;;;4.93;2.28;;;;;;;26.93;19.98;101760.81;5025559;27;97426;-73
2023/05/28 08:24:43;;;;;;;5.45;2.13;;;;;;;26.71;20.35;101763.69;5036307;27;101709;-72
2023/05/28 08:27:10;;;;;;;9.05;4.22;;;;;;;27.08;20.19;101766.72;5031595;27;100366;-73
2023/05/28 08:29:36;;;;;;;5.50;2.08;;;;;;;26.92;19.63;101762.66;5032858;27;96731;-73
2023/05/28 08:32:03;;;;;;;6.25;2.08;;;;;;;26.75;19.10;101759.69;5032920;27;97100;-72
2023/05/28 08:34:30;;;;;;;5.53;2.10;;;;;;;26.59;19.31;101760.16;5036762;27;100378;-73
2023/05/28 08:36:57;;;;;;;5.85;1.70;;;;;;;26.37;19.51;101750.34;5037437;27;99342;-72
2023/05/28 08:39:26;;;;;;;5.22;2.40;;;;;;;26.66;19.24;101752.34;5024403;27;96873;-72
2023/05/28 08:41:53;;;;;;;4.03;1.90;;;;;;;26.67;19.69;101748.66;5032614;27;96905;-73
2023/05/28 08:44:20;;;;;;;7.60;2.40;;;;;;;26.48;19.69;101762.94;5028294;27;101978;-73
2023/05/28 08:46:46;;;;;;;5.28;2.08;;;;;;;26.49;19.30;101760.13;5021642;27;102247;-71
2023/05/28 08:49:14;;;;;;;3.47;1.70;;;;;;;26.43;19.51;101752.53;5022095;27;97602;-72
2023/05/28 08:51:44;;;;;;;4.70;1.98;;;;;;;26.26;18.94;101755.81;5024442;27;97188;-71
2023/05/28 08:54:11;;;;;;;5.55;2.60;;;;;;;26.46;19.05;101763.06;5027117;27;98963;-72
2023/05/28 08:56:40;;;;;;;4.45;2.03;;;;;;;26.67;19.10;101757.66;5024752;27;98906;-72
2023/05/28 08:59:07;;;;;;;6.65;3.60;;;;;;;26.53;19.12;101745.28;5028738;27;96864;-72
2023/05/28 09:01:34;;;;;;;7.78;2.65;;;;;;;26.72;19.09;101739.13;5029352;27;96735;-72
2023/05/28 09:04:01;;;;;;;5.80;2.10;;;;;;;26.32;19.69;101743.59;5023469;27;99032;-73
2023/05/28 09:06:30;;;;;;;10.70;2.15;;;;;;;26.21;20.02;101744.47;5021019;27;98771;-71
2023/05/28 09:08:58;;;;;;;5.68;2.00;;;;;;;26.11;19.45;101730.88;5020467;27;96825;-72
2023/05/28 09:11:25;;;;;;;7.22;2.17;;;;;;;26.10;19.48;101733.72;5015250;27;97061;-69
2023/05/28 09:13:51;;;;;;;13.90;2.15;;;;;;;26.56;19.98;101734.19;5024160;27;98970;-68
2023/05/28 09:16:23;;;;;;;4.15;2.50;;;;;;;26.97;19.16;101724.31;5026215;27;99336;-69
2023/05/28 09:18:51;;;;;;;4.22;2.30;;;;;;;27.01;18.91;101728.44;5025292;27;96789;-69
2023/05/28 09:21:19;;;;;;;4.10;2.30;;;;;;;26.74;19.16;101726.28;5024923;27;97324;-69
2023/05/28 09:23:51;;;;;;;7.03;1.85;;;;;;;26.63;18.92;101733.66;5030328;27;98931;-71
2023/05/28 09:26:20;;;;;;;4.00;1.98;;;;;;;26.64;19.34;101719.13;5026116;27;99379;-70
2023/05/28 09:28:47;;;;;;;4.78;1.92;;;;;;;26.90;19.22;101720.41;5025459;27;97209;-69
2023/05/28 09:31:14;;;;;;;6.30;2.20;;;;;;;27.03;19.19;101715.63;5025007;27;97615;-70
2023/05/28 09:33:50;;;;;;;5.10;2.45;;;;;;;27.16;19.23;101721.66;5033737;27;99381;-69
2023/05/28 09:36:18;;;;;;;6.38;2.40;;;;;;;27.14;18.81;101711.94;5028457;27;99551;-69
2023/05/28 09:38:44;;;;;;;6.15;2.00;;;;;;;27.15;18.74;101708.22;5029690;27;98704;-70
2023/05/28 09:41:22;;;;;;;8.63;2.15;;;;;;;27.18;19.14;101708.78;5026508;27;96823;-70
2023/05/28 09:43:58;;;;;;;3.17;2.00;;;;;;;27.22;18.27;101707.53;5033549;27;98931;-70
2023/05/28 09:46:29;;;;;;;6.63;2.53;;;;;;;26.94;18.92;101705.59;5020236;27;99058;-70
2023/05/28 09:48:55;;;;;;;4.93;2.10;;;;;;;27.14;18.72;101707.38;5024736;27;97689;-70
2023/05/28 09:51:26;;;;;;;5.25;2.00;;;;;;;27.16;18.81;101696.38;5021565;27;97288;-69
2023/05/28 09:53:57;;;;;;;6.75;1.90;;;;;;;26.77;19.21;101706.19;5031095;27;97663;-70
2023/05/28 09:56:29;;;;;;;5.53;1.80;;;;;;;27.16;18.72;101694.53;5022064;27;98878;-71
2023/05/28 09:58:57;;;;;;;5.82;2.45;;;;;;;26.88;18.50;101692.53;5027806;27;96775;-72
2023/05/28 10:01:28;;;;;;;8.45;2.25;;;;;;;26.66;19.15;101696.28;5019444;27;97928;-72
2023/05/28 10:04:02;;;;;;;6.00;1.67;;;;;;;27.01;18.84;101695.03;5006336;27;98801;-73
2023/05/28 10:06:29;;;;;;;4.85;2.13;;;;;;;27.00;18.69;101696.03;5012134;27;101406;-72
2023/05/28 10:08:56;;;;;;;4.45;2.13;;;;;;;27.10;18.63;101694.22;5011896;27;98843;-72
2023/05/28 10:11:26;;;;;;;7.50;2.22;;;;;;;27.00;18.27;101683.34;5016186;27;97707;-72
2023/05/28 10:13:55;;;;;;;5.25;2.20;;;;;;;26.70;18.88;101686.03;5017139;27;98961;-73
2023/05/28 10:16:22;;;;;;;12.20;2.75;;;;;;;26.94;19.04;101684.75;5003890;27;97547;-71
2023/05/28 10:18:49;;;;;;;6.00;2.35;;;;;;;27.11;18.80;101680.50;5013445;27;96968;-71
2023/05/28 10:21:16;;;;;;;5.43;2.15;;;;;;;27.15;19.28;101678.38;5019273;27;97181;-73
2023/05/28 10:23:44;;;;;;;11.05;2.33;;;;;;;26.85;19.14;101677.38;5022211;27;99299;-74
2023/05/28 10:26:11;;;;;;;5.93;2.50;;;;;;;26.85;19.92;101679.25;5012912;27;98840;-74
2023/05/28 10:28:38;;;;;;;5.22;1.73;;;;;;;26.77;19.41;101682.66;5018553;27;97206;-74
2023/05/28 10:31:07;;;;;;;5.63;2.10;;;;;;;27.03;18.74;101674.94;5023656;27;97390;-73
2023/05/28 10:33:38;;;;;;;6.72;2.30;;;;;;;27.14;19.17;101677.53;5022436;27;98619;-74
2023/05/28 10:36:10;;;;;;;4.55;2.60;;;;;;;27.15;18.95;101675.66;5023016;27;98858;-68
2023/05/28 10:38:43;;;;;;;8.05;2.53;;;;;;;27.05;18.68;101675.63;5024362;27;98547;-72
2023/05/28 10:41:09;;;;;;;5.82;2.63;;;;;;;27.19;18.65;101677.97;5023552;27;97431;-76
2023/05/28 10:43:46;;;;;;;7.13;2.30;;;;;;;27.20;18.54;101676.97;5027885;27;101035;-73
2023/05/28 10:46:16;;;;;;;4.13;2.40;;;;;;;27.17;18.73;101671.84;5022988;27;100075;-73
2023/05/28 10:49:06;;;;;;;6.28;2.85;;;;;;;27.19;18.79;101680.66;5020601;27;96920;-72
2023/05/28 10:51:56;;;;;;;4.43;2.20;;;;;;;27.32;18.68;101680.41;5022516;27;97899;-74
2023/05/28 10:54:25;;;;;;;5.07;2.40;;;;;;;27.07;18.99;101673.66;5025964;27;101369;-72
2023/05/28 10:57:08;;;;;;;8.23;2.40;;;;;;;27.06;18.54;101666.50;5021361;27;101083;-74
2023/05/28 10:59:38;;;;;;;7.90;2.30;;;;;;;26.98;18.65;101672.59;5025897;27;100654;-74
2023/05/28 11:02:07;;;;;;;6.38;2.63;;;;;;;27.23;18.60;101673.97;5020173;27;96912;-73
2023/05/28 11:04:34;;;;;;;4.47;2.42;;;;;;;27.15;18.01;101671.09;5025461;27;100979;-73
2023/05/28 11:07:03;;;;;;;6.53;2.25;;;;;;;27.26;18.22;101678.25;5020334;27;99255;-73
2023/05/28 11:09:30;;;;;;;5.15;2.40;;;;;;;27.03;18.69;101683.06;5022785;27;97303;-72
2023/05/28 11:11:59;;;;;;;4.75;2.33;;;;;;;27.20;18.50;101684.25;5018945;27;96952;-73
2023/05/28 11:14:30;;;;;;;5.28;2.05;;;;;;;27.27;18.50;101671.84;5017440;27;101872;-73
2023/05/28 11:16:56;;;;;;;6.35;1.90;;;;;;;27.39;18.49;101670.72;5020254;27;98864;-73
2023/05/28 11:19:24;;;;;;;6.13;2.58;;;;;;;27.45;18.90;101672.84;5023539;27;97241;-73
2023/05/28 11:21:51;;;;;;;4.85;2.10;;;;;;;27.59;18.56;101669.75;5021486;27;97718;-72